createdAt,value
2023-01-22T00:01:28.459Z,22.60
2023-01-22T00:04:55.569Z,27.70
2023-01-22T00:08:22.684Z,36.40
2023-01-22T00:11:49.751Z,24.70
2023-01-22T00:15:17.105Z,24.60
2023-01-22T00:18:45.164Z,22.50
2023-01-22T00:22:12.728Z,26.60
2023-01-22T00:25:39.771Z,28.00
2023-01-22T00:29:07.429Z,29.50
2023-01-22T00:32:35.139Z,21.90
2023-01-22T00:36:07.144Z,23.80
2023-01-22T00:39:34.119Z,16.70
2023-01-22T00:43:01.135Z,22.70
2023-01-22T00:46:28.623Z,17.50
2023-01-22T00:49:55.624Z,21.60
2023-01-22T00:53:22.691Z,32.20
2023-01-22T00:56:49.881Z,17.00
2023-01-22T01:00:18.951Z,25.10
2023-01-22T01:03:47.543Z,28.70
2023-01-22T01:07:14.712Z,29.40
2023-01-22T01:10:44.630Z,22.60
2023-01-22T01:14:12.017Z,26.40
2023-01-22T01:17:41.417Z,33.50
2023-01-22T01:21:09.275Z,25.20
2023-01-22T01:24:37.284Z,27.60
2023-01-22T01:28:05.350Z,22.10
2023-01-22T01:31:32.707Z,33.30
2023-01-22T01:34:59.991Z,30.50
2023-01-22T01:38:26.915Z,28.30
2023-01-22T01:41:54.053Z,22.00
2023-01-22T01:45:30.339Z,28.30
2023-01-22T01:48:57.929Z,18.80
2023-01-22T01:52:24.922Z,29.60
2023-01-22T01:55:53.051Z,38.70
2023-01-22T01:59:22.745Z,39.60
2023-01-22T02:02:51.652Z,24.70
2023-01-22T02:06:20.780Z,33.60
2023-01-22T02:09:48.009Z,28.90
2023-01-22T02:13:21.442Z,26.70
2023-01-22T02:16:48.667Z,36.20
2023-01-22T02:20:16.693Z,31.20
2023-01-22T02:23:44.108Z,36.00
2023-01-22T02:27:11.275Z,38.50
2023-01-22T02:30:38.363Z,42.20
2023-01-22T02:34:06.061Z,38.50
2023-01-22T02:41:01.510Z,48.00
2023-01-22T02:44:30.616Z,39.60
2023-01-22T02:47:57.762Z,41.00
2023-01-22T02:51:26.668Z,41.10
2023-01-22T02:54:53.833Z,55.80
2023-01-22T02:58:20.787Z,55.20
2023-01-22T03:01:47.967Z,35.10
2023-01-22T03:05:16.024Z,51.00
2023-01-22T03:08:42.969Z,38.80
2023-01-22T03:12:10.843Z,34.90
2023-01-22T03:15:58.140Z,44.20
2023-01-22T03:19:44.086Z,37.50
2023-01-22T03:23:17.783Z,38.90
2023-01-22T03:26:44.733Z,43.90
2023-01-22T03:30:13.992Z,33.00
2023-01-22T03:37:08.058Z,40.90
2023-01-22T03:40:35.903Z,47.40
2023-01-22T03:44:03.708Z,38.60
2023-01-22T03:47:33.619Z,42.10
2023-01-22T03:54:34.204Z,49.60
2023-01-22T03:58:03.642Z,37.30
2023-01-22T04:01:32.285Z,43.60
2023-01-22T04:04:59.496Z,39.80
2023-01-22T04:08:27.839Z,47.00
2023-01-22T04:11:55.382Z,56.80
2023-01-22T04:15:22.860Z,41.90
2023-01-22T04:18:51.248Z,60.40
2023-01-22T04:22:38.415Z,65.70
2023-01-22T04:26:07.141Z,57.60
2023-01-22T04:29:34.757Z,59.90
2023-01-22T04:33:02.059Z,80.40
2023-01-22T04:36:43.556Z,81.50
2023-01-22T04:40:13.291Z,56.80
2023-01-22T04:47:06.655Z,43.70
2023-01-22T04:50:35.767Z,49.30
2023-01-22T04:54:02.926Z,40.80
2023-01-22T04:57:30.073Z,44.10
2023-01-22T05:00:59.583Z,56.50
2023-01-22T05:04:27.827Z,52.40
2023-01-22T05:07:54.958Z,53.60
2023-01-22T05:11:22.698Z,38.50
2023-01-22T05:14:54.123Z,42.60
2023-01-22T05:18:21.593Z,49.50
2023-01-22T05:25:18.593Z,40.20
2023-01-22T05:28:46.930Z,47.90
2023-01-22T05:32:30.659Z,39.10
2023-01-22T05:36:02.667Z,52.80
2023-01-22T05:39:29.833Z,48.80
2023-01-22T05:42:59.175Z,50.30
2023-01-22T05:46:27.593Z,50.90
2023-01-22T05:50:24.284Z,46.90
2023-01-22T05:54:01.804Z,50.80
2023-01-22T05:57:35.227Z,49.50
2023-01-22T06:01:02.462Z,50.10
2023-01-22T06:04:32.562Z,56.10
2023-01-22T06:08:01.158Z,50.50
2023-01-22T06:11:33.315Z,50.40
2023-01-22T06:15:00.456Z,57.10
2023-01-22T06:18:28.516Z,51.60
2023-01-22T06:21:56.133Z,54.40
2023-01-22T06:25:31.580Z,59.80
2023-01-22T06:29:06.506Z,61.30
2023-01-22T06:32:34.177Z,52.40
2023-01-22T06:36:01.425Z,56.90
2023-01-22T06:39:28.609Z,48.40
2023-01-22T06:43:10.804Z,58.20
2023-01-22T06:46:38.516Z,58.10
2023-01-22T06:50:10.959Z,56.10
2023-01-22T06:53:38.071Z,54.30
2023-01-22T06:57:05.606Z,56.10
2023-01-22T07:00:35.197Z,41.70
2023-01-22T07:04:02.225Z,51.80
2023-01-22T07:07:29.349Z,53.70
2023-01-22T07:10:56.304Z,48.50
2023-01-22T07:14:35.903Z,54.30
2023-01-22T07:18:03.911Z,47.60
2023-01-22T07:21:31.456Z,55.40
2023-01-22T07:24:58.419Z,55.00
2023-01-22T07:28:25.932Z,57.70
2023-01-22T07:31:53.533Z,57.40
2023-01-22T07:35:21.056Z,59.70
2023-01-22T07:38:47.957Z,58.60
2023-01-22T07:42:16.064Z,57.30
2023-01-22T07:45:43.605Z,61.00
2023-01-22T07:49:12.208Z,56.50
2023-01-22T07:52:39.047Z,51.60
2023-01-22T07:56:07.612Z,50.50
2023-01-22T07:59:35.800Z,66.10
2023-01-22T08:03:03.303Z,48.80
2023-01-22T08:06:30.292Z,70.30
2023-01-22T08:09:57.199Z,65.00
2023-01-22T08:13:24.134Z,65.00
2023-01-22T08:16:51.131Z,67.70
2023-01-22T08:20:19.030Z,69.70
2023-01-22T08:23:49.165Z,77.20
2023-01-22T08:27:16.627Z,72.30
2023-01-22T08:30:46.652Z,68.30
2023-01-22T08:34:14.292Z,69.50
2023-01-22T08:37:43.921Z,57.50
2023-01-22T08:44:36.631Z,77.40
2023-01-22T08:48:04.381Z,71.50
2023-01-22T08:51:33.097Z,83.10
2023-01-22T08:55:00.293Z,82.60
2023-01-22T08:58:28.032Z,81.60
2023-01-22T09:01:54.975Z,68.20
2023-01-22T09:05:22.082Z,88.70
2023-01-22T09:08:48.980Z,81.80
2023-01-22T09:12:16.028Z,86.60
2023-01-22T09:15:44.119Z,88.20
2023-01-22T09:19:11.867Z,86.00
2023-01-22T09:22:38.848Z,91.80
2023-01-22T09:26:06.082Z,84.60
2023-01-22T09:29:33.068Z,105.80
2023-01-22T09:33:00.263Z,116.30
2023-01-22T09:36:27.359Z,104.60
2023-01-22T09:39:54.629Z,95.20
2023-01-22T09:43:28.222Z,97.90
2023-01-22T09:47:00.060Z,85.50
2023-01-22T09:50:30.138Z,84.20
2023-01-22T09:54:01.643Z,105.00
2023-01-22T09:57:32.520Z,98.80
2023-01-22T10:01:02.128Z,101.60
2023-01-22T10:08:06.875Z,76.50
2023-01-22T10:11:33.769Z,95.40
2023-01-22T10:15:01.155Z,103.80
2023-01-22T10:18:42.653Z,114.50
2023-01-22T10:22:17.466Z,69.00
2023-01-22T10:25:45.884Z,86.10
2023-01-22T10:29:27.038Z,87.30
2023-01-22T10:33:05.210Z,82.00
2023-01-22T10:36:32.959Z,99.80
2023-01-22T10:40:01.924Z,97.00
2023-01-22T10:43:35.645Z,105.70
2023-01-22T10:47:20.730Z,87.70
2023-01-22T10:51:00.126Z,70.50
2023-01-22T10:54:31.201Z,88.10
2023-01-22T10:58:03.125Z,76.00
2023-01-22T11:01:36.752Z,91.70
2023-01-22T11:05:19.409Z,113.30
2023-01-22T11:08:54.615Z,101.70
2023-01-22T11:12:26.923Z,66.50
2023-01-22T11:16:01.915Z,84.00
2023-01-22T11:19:40.473Z,70.60
2023-01-22T11:23:19.443Z,81.70
2023-01-22T11:27:23.696Z,83.40
2023-01-22T11:31:08.365Z,85.90
2023-01-22T11:34:49.860Z,66.80
2023-01-22T11:38:24.063Z,74.00
2023-01-22T11:42:01.951Z,81.60
2023-01-22T11:45:41.572Z,77.70
2023-01-22T11:49:22.318Z,65.50
2023-01-22T11:52:54.704Z,58.30
2023-01-22T11:56:33.484Z,67.80
2023-01-22T12:00:30.040Z,51.60
2023-01-22T12:04:15.522Z,52.20
2023-01-22T12:07:56.828Z,63.60
2023-01-22T12:11:39.359Z,32.60
2023-01-22T12:15:19.576Z,51.80
2023-01-22T12:19:23.966Z,57.20
2023-01-22T12:22:58.389Z,64.90
2023-01-22T12:26:31.703Z,48.80
2023-01-22T12:30:04.519Z,72.00
2023-01-22T12:33:34.864Z,60.10
2023-01-22T12:37:05.218Z,56.70
2023-01-22T12:40:59.242Z,67.30
2023-01-22T12:44:41.875Z,67.70
2023-01-22T12:48:20.687Z,72.30
2023-01-22T12:51:49.377Z,104.30
2023-01-22T12:55:33.127Z,79.40
2023-01-22T12:59:00.915Z,70.60
2023-01-22T13:02:39.234Z,107.10
2023-01-22T13:06:19.404Z,81.20
2023-01-22T13:09:46.802Z,75.50
2023-01-22T13:13:26.808Z,86.80
2023-01-22T13:17:00.670Z,97.00
2023-01-22T13:20:30.369Z,76.90
2023-01-22T13:27:29.363Z,77.80
2023-01-22T13:31:02.315Z,102.20
2023-01-22T13:34:30.269Z,93.60
2023-01-22T13:37:57.559Z,107.90
2023-01-22T13:41:31.365Z,103.90
2023-01-22T13:44:59.954Z,92.70
2023-01-22T13:48:28.542Z,103.40
2023-01-22T13:51:57.910Z,89.70
2023-01-22T13:55:27.034Z,94.30
2023-01-22T13:59:05.948Z,101.90
2023-01-22T14:02:35.936Z,102.70
2023-01-22T14:06:12.901Z,83.50
2023-01-22T14:09:41.880Z,102.10
2023-01-22T14:13:11.651Z,70.30
2023-01-22T14:16:44.942Z,96.80
2023-01-22T14:20:15.387Z,127.20
2023-01-22T14:23:44.007Z,117.30
2023-01-22T14:27:13.412Z,110.70
2023-01-22T14:30:42.169Z,116.10
2023-01-22T14:34:12.576Z,101.10
2023-01-22T14:37:46.679Z,103.40
2023-01-22T14:41:16.371Z,100.60
2023-01-22T14:48:15.631Z,97.50
2023-01-22T14:51:44.408Z,83.10
2023-01-22T14:55:13.611Z,102.00
2023-01-22T14:58:41.977Z,107.00
2023-01-22T15:02:13.424Z,98.30
2023-01-22T15:05:43.339Z,92.20
2023-01-22T15:09:12.300Z,139.40
2023-01-22T15:12:40.992Z,217.80
2023-01-22T15:16:11.351Z,265.90
2023-01-22T15:19:41.633Z,251.50
2023-01-22T15:23:11.179Z,174.80
2023-01-22T15:26:40.456Z,141.10
2023-01-22T15:30:13.084Z,126.20
2023-01-22T15:33:43.456Z,109.80
2023-01-22T15:37:14.924Z,207.40
2023-01-22T15:40:44.968Z,194.70
2023-01-22T15:44:16.744Z,169.20
2023-01-22T15:47:49.470Z,125.90
2023-01-22T15:51:19.484Z,133.30
2023-01-22T15:54:48.842Z,126.20
2023-01-22T15:58:16.785Z,197.50
2023-01-22T16:01:44.752Z,155.20
2023-01-22T16:05:14.048Z,149.10
2023-01-22T16:08:43.450Z,120.90
2023-01-22T16:12:12.469Z,139.00
2023-01-22T16:15:40.718Z,126.20
2023-01-22T16:19:13.385Z,124.00
2023-01-22T16:22:42.703Z,102.10
2023-01-22T16:26:14.882Z,112.00
2023-01-22T16:29:45.019Z,112.40
2023-01-22T16:33:24.846Z,110.70
2023-01-22T16:36:55.549Z,109.20
2023-01-22T16:40:25.196Z,140.50
2023-01-22T16:43:57.391Z,131.20
2023-01-22T16:47:27.572Z,109.90
2023-01-22T16:50:57.666Z,95.30
2023-01-22T16:54:29.424Z,98.60
2023-01-22T16:58:00.945Z,97.80
2023-01-22T17:01:33.538Z,110.00
2023-01-22T17:05:03.129Z,112.40
2023-01-22T17:12:01.049Z,107.10
2023-01-22T17:15:35.908Z,91.00
2023-01-22T17:19:09.403Z,92.40
2023-01-22T17:22:38.955Z,89.00
2023-01-22T17:26:11.381Z,72.50
2023-01-22T17:29:42.133Z,74.50
2023-01-22T17:36:47.511Z,73.00
2023-01-22T17:40:18.227Z,82.20
2023-01-22T17:43:50.866Z,72.80
2023-01-22T17:47:20.486Z,94.60
2023-01-22T17:54:17.272Z,88.60
2023-01-22T17:57:47.284Z,91.20
2023-01-22T18:01:18.426Z,74.50
2023-01-22T18:04:47.786Z,84.20
2023-01-22T18:08:17.552Z,99.60
2023-01-22T18:11:47.810Z,86.20
2023-01-22T18:15:18.215Z,80.90
2023-01-22T18:18:48.363Z,92.00
2023-01-22T18:22:17.546Z,95.20
2023-01-22T18:25:50.469Z,90.30
2023-01-22T18:29:20.485Z,85.20
2023-01-22T18:36:18.985Z,67.90
2023-01-22T18:39:48.355Z,93.10
2023-01-22T18:43:19.408Z,92.00
2023-01-22T18:46:51.896Z,85.00
2023-01-22T18:50:22.112Z,90.70
2023-01-22T18:53:51.892Z,78.00
2023-01-22T18:57:21.450Z,90.30
2023-01-22T19:00:50.816Z,87.40
2023-01-22T19:04:22.213Z,92.70
2023-01-22T19:07:52.257Z,86.70
2023-01-22T19:11:22.159Z,94.30
2023-01-22T19:14:53.803Z,95.90
2023-01-22T19:18:23.019Z,92.40
2023-01-22T19:21:56.377Z,76.70
2023-01-22T19:25:25.662Z,75.80
2023-01-22T19:28:58.708Z,78.30
2023-01-22T19:32:30.428Z,82.20
2023-01-22T19:35:59.828Z,97.80
2023-01-22T19:39:29.603Z,85.90
2023-01-22T19:42:59.120Z,86.90
2023-01-22T19:49:56.961Z,77.30
2023-01-22T19:56:54.739Z,94.70
2023-01-22T20:00:25.874Z,96.30
2023-01-22T20:03:57.685Z,81.40
2023-01-22T20:07:28.461Z,84.60
2023-01-22T20:11:03.850Z,110.40
2023-01-22T20:14:38.940Z,109.40
2023-01-22T20:18:08.942Z,89.10
2023-01-22T20:21:38.439Z,116.10
2023-01-22T20:25:09.816Z,106.40
2023-01-22T20:28:39.624Z,105.50
2023-01-22T20:32:09.846Z,89.30
2023-01-22T20:35:41.645Z,84.90
2023-01-22T20:39:11.494Z,88.50
2023-01-22T20:42:41.012Z,104.10
2023-01-22T20:49:39.323Z,98.00
2023-01-22T20:53:09.086Z,97.00
2023-01-22T20:56:39.570Z,97.20
2023-01-22T21:00:11.305Z,101.50
2023-01-22T21:03:40.757Z,96.80
2023-01-22T21:10:37.638Z,90.70
2023-01-22T21:14:09.464Z,76.80
2023-01-22T21:17:42.113Z,90.90
2023-01-22T21:21:12.475Z,89.70
2023-01-22T21:24:42.508Z,102.70
2023-01-22T21:28:12.967Z,93.30
2023-01-22T21:31:42.605Z,87.20
2023-01-22T21:38:40.258Z,77.80
2023-01-22T21:42:26.639Z,56.80
2023-01-22T21:46:12.689Z,86.20
2023-01-22T21:49:43.105Z,76.80
2023-01-22T21:53:12.800Z,74.60
2023-01-22T22:00:07.696Z,77.60
2023-01-22T22:03:35.469Z,69.20
2023-01-22T22:07:02.521Z,74.40
2023-01-22T22:10:29.720Z,84.60
2023-01-22T22:13:57.545Z,81.10
2023-01-22T22:17:24.626Z,76.00
2023-01-22T22:20:51.855Z,74.10
2023-01-22T22:24:18.933Z,81.10
2023-01-22T22:27:46.162Z,73.10
2023-01-22T22:31:14.610Z,80.10
2023-01-22T22:34:41.776Z,91.20
2023-01-22T22:38:08.789Z,83.80
2023-01-22T22:41:38.654Z,84.00
2023-01-22T22:45:06.743Z,78.70
2023-01-22T22:48:34.083Z,79.50
2023-01-22T22:52:01.059Z,75.50
2023-01-22T22:55:28.722Z,66.80
2023-01-22T22:58:56.500Z,86.10
2023-01-22T23:02:24.094Z,85.00
2023-01-22T23:05:51.558Z,78.20
2023-01-22T23:09:20.961Z,84.00
2023-01-22T23:12:48.017Z,85.20
2023-01-22T23:16:18.211Z,82.40
2023-01-22T23:19:45.368Z,70.40
2023-01-22T23:23:12.331Z,80.30
2023-01-22T23:26:40.209Z,68.40
2023-01-22T23:30:09.744Z,76.10
2023-01-22T23:37:02.236Z,66.40
2023-01-22T23:40:29.496Z,74.90
2023-01-22T23:43:56.464Z,78.90
2023-01-22T23:47:27.054Z,68.60
2023-01-22T23:50:55.106Z,67.40
2023-01-22T23:54:22.641Z,71.40
2023-01-22T23:57:49.793Z,59.50
